tititudorancea.com
Station Historical Data
Daily Summary for November 4, 2018 Units:  English    Metric   Both
« Previous Day
Next Day »
Daily Weekly Monthly Yearly Custom
  High: Low: Average:
Temperature: TemperatureF °F 38.8 °F 55.3 °F
Dew Point: DewpointF °F 36.7 °F 44.5 °F
Humidity: Humidity % 46 % 70 %
Wind Speed: WindSpeedMPH mph 0.0 mph 5.2 mph
Wind Gust: WindSpeedGustMPH mph - -
Wind:- - WNW
Pressure: PressureIn in 29.77 in -
Precipitation: 0.00 in    
Historical Graphs
 
 
Ararat weather Find more about Weather in Ararat, AU


 



 


Tabular Data for November 4, 2018
Time Temperature Dew Point Pressure Wind Wind Speed Wind Gust Humidity Rainfall Rate (Hourly)
TemperatureF °F DewpointF °F PressureIn in Calm     Humidity % HourlyPrecipIn in
00:04 46.0 °F 42.6 °F 30.02 in Calm     88 % 0.00 in
00:09 45.8 °F 42.4 °F 30.01 in Calm     88 % 0.00 in
00:14 45.7 °F 42.6 °F 30.01 in Calm     89 % 0.00 in
00:19 45.6 °F 42.5 °F 30.02 in Calm     89 % 0.00 in
00:24 45.7 °F 42.6 °F 30.02 in SSW 3.5 mph 1.9 mph 89 % 0.00 in
00:29 45.7 °F 42.6 °F 30.02 in SSW 2.3 mph 0.6 mph 89 % 0.00 in
00:34 45.7 °F 42.6 °F 30.02 in SSW 2.3 mph 0.7 mph 89 % 0.00 in
00:39 45.6 °F 42.5 °F 30.02 in Calm     89 % 0.00 in
00:44 45.4 °F 42.3 °F 30.02 in Calm     89 % 0.00 in
00:49 45.1 °F 42.1 °F 30.02 in Calm     89 % 0.00 in
00:54 45.0 °F 42.2 °F 30.02 in Calm     90 % 0.00 in
00:59 44.8 °F 41.8 °F 30.01 in Calm     89 % 0.00 in
01:04 44.6 °F 41.8 °F 30.01 in Calm     90 % 0.00 in
01:09 44.5 °F 41.7 °F 30.01 in Calm     90 % 0.00 in
01:14 44.5 °F 41.7 °F 30.01 in Calm     90 % 0.00 in
01:19 44.6 °F 41.8 °F 30.01 in Calm     90 % 0.00 in
01:24 44.8 °F 42.3 °F 30.01 in Calm     91 % 0.00 in
01:29 44.9 °F 42.4 °F 30.00 in Calm     91 % 0.00 in
01:34 44.8 °F 42.3 °F 30.00 in Calm     91 % 0.00 in
01:39 44.4 °F 41.7 °F 30.00 in Calm     90 % 0.00 in
01:44 44.3 °F 41.8 °F 29.99 in Calm     91 % 0.00 in
01:49 44.2 °F 41.5 °F 29.98 in Calm     90 % 0.00 in
01:54 43.9 °F 41.2 °F 29.98 in Calm     90 % 0.00 in
01:59 43.6 °F 40.9 °F 29.98 in Calm     90 % 0.00 in
02:04 43.3 °F 40.6 °F 29.98 in Calm     90 % 0.00 in
02:09 43.1 °F 40.7 °F 29.97 in Calm     91 % 0.00 in
02:14 42.9 °F 40.2 °F 29.97 in Calm     90 % 0.00 in
02:19 42.8 °F 40.4 °F 29.96 in Calm     91 % 0.00 in
02:24 42.8 °F 40.4 °F 29.97 in Calm     91 % 0.00 in
02:29 42.5 °F 40.1 °F 29.97 in Calm     91 % 0.00 in
02:34 42.3 °F 39.9 °F 29.97 in Calm     91 % 0.00 in
02:39 42.1 °F 39.7 °F 29.97 in Calm     91 % 0.00 in
02:44 42.3 °F 40.1 °F 29.96 in Calm     92 % 0.00 in
02:49 42.4 °F 40.2 °F 29.96 in Calm     92 % 0.00 in
02:54 42.2 °F 39.8 °F 29.96 in Calm     91 % 0.00 in
02:59 42.1 °F 39.9 °F 29.96 in Calm     92 % 0.00 in
03:04 42.4 °F 40.2 °F 29.96 in Calm     92 % 0.00 in
03:09 42.6 °F 40.4 °F 29.96 in Calm     92 % 0.00 in
03:14 42.7 °F 40.5 °F 29.96 in Calm     92 % 0.00 in
03:19 42.6 °F 40.4 °F 29.96 in Calm     92 % 0.00 in
03:24 42.4 °F 40.2 °F 29.96 in Calm     92 % 0.00 in
03:29 42.0 °F 39.6 °F 29.96 in Calm     91 % 0.00 in
03:34 41.7 °F 39.5 °F 29.95 in Calm     92 % 0.00 in
03:39 41.5 °F 39.3 °F 29.95 in Calm     92 % 0.00 in
03:44 41.3 °F 39.2 °F 29.95 in Calm     92 % 0.00 in
03:49 41.1 °F 39.0 °F 29.95 in Calm     92 % 0.00 in
03:54 41.0 °F 38.9 °F 29.95 in Calm     92 % 0.00 in
03:59 40.9 °F 38.8 °F 29.95 in Calm     92 % 0.00 in
04:04 40.8 °F 38.7 °F 29.95 in Calm     92 % 0.00 in
04:09 40.8 °F 38.7 °F 29.95 in SSW 2.3 mph 0.7 mph 92 % 0.00 in
04:14 40.8 °F 38.7 °F 29.94 in Calm     92 % 0.00 in
04:19 40.5 °F 38.4 °F 29.94 in Calm     92 % 0.00 in
04:24 40.3 °F 38.2 °F 29.94 in Calm     92 % 0.00 in
04:29 40.0 °F 37.9 °F 29.94 in Calm     92 % 0.00 in
04:34 39.8 °F 37.7 °F 29.94 in Calm     92 % 0.00 in
04:39 39.5 °F 37.4 °F 29.93 in Calm     92 % 0.00 in
04:44 39.4 °F 37.3 °F 29.93 in Calm     92 % 0.00 in
04:49 39.1 °F 37.0 °F 29.93 in Calm     92 % 0.00 in
04:54 39.1 °F 37.0 °F 29.93 in Calm     92 % 0.00 in
04:59 39.0 °F 36.9 °F 29.92 in Calm     92 % 0.00 in
05:04 38.8 °F 36.7 °F 29.92 in Calm     92 % 0.00 in
05:09 38.8 °F 36.9 °F 29.91 in SSW 3.0 mph 2.2 mph 93 % 0.00 in
05:14 39.6 °F 38.0 °F 29.90 in North 3.5 mph 2.3 mph 94 % 0.00 in
05:19 40.0 °F 38.1 °F 29.91 in North 2.3 mph 1.5 mph 93 % 0.00 in
05:24 40.4 °F 38.8 °F 29.91 in SSW 3.5 mph 2.2 mph 94 % 0.00 in
05:29 40.8 °F 39.2 °F 29.92 in North 4.0 mph 2.9 mph 94 % 0.00 in
05:34 41.2 °F 39.6 °F 29.93 in SSW 3.5 mph 2.5 mph 94 % 0.00 in
05:39 41.3 °F 39.7 °F 29.93 in Calm     94 % 0.00 in
05:44 41.5 °F 39.9 °F 29.93 in Calm     94 % 0.00 in
05:49 41.7 °F 40.1 °F 29.93 in Calm     94 % 0.00 in
05:54 41.7 °F 39.8 °F 29.93 in Calm     93 % 0.00 in
05:59 41.7 °F 40.1 °F 29.93 in Calm     94 % 0.00 in
06:04 41.7 °F 39.8 °F 29.93 in Calm     93 % 0.00 in
06:09 41.6 °F 39.7 °F 29.92 in North 2.3 mph 1.9 mph 93 % 0.00 in
06:14 41.3 °F 39.4 °F 29.92 in Calm     93 % 0.00 in
06:19 41.0 °F 39.1 °F 29.92 in SSW 3.0 mph 2.0 mph 93 % 0.00 in
06:24 40.8 °F 38.9 °F 29.93 in Calm     93 % 0.00 in
06:29 40.6 °F 38.7 °F 29.92 in SSW 2.3 mph 0.7 mph 93 % 0.00 in
06:34 40.5 °F 38.6 °F 29.92 in SSW 3.5 mph 1.5 mph 93 % 0.00 in
06:39 41.0 °F 39.4 °F 29.92 in North 3.5 mph 2.1 mph 94 % 0.00 in
06:44 41.4 °F 39.8 °F 29.92 in SSW 3.5 mph 3.0 mph 94 % 0.00 in
06:49 41.7 °F 40.1 °F 29.92 in SSW 3.5 mph 2.3 mph 94 % 0.00 in
06:54 41.9 °F 40.3 °F 29.92 in SSW 2.3 mph 0.4 mph 94 % 0.00 in
06:59 42.2 °F 40.6 °F 29.93 in SSW 3.5 mph 1.9 mph 94 % 0.00 in
07:04 42.5 °F 40.9 °F 29.92 in Calm     94 % 0.00 in
07:09 42.8 °F 41.2 °F 29.92 in SSW 2.3 mph 1.1 mph 94 % 0.00 in
07:14 43.2 °F 41.9 °F 29.92 in SSW 3.5 mph 2.1 mph 95 % 0.00 in
07:19 43.7 °F 42.4 °F 29.92 in SSW 2.3 mph 1.4 mph 95 % 0.00 in
07:24 44.2 °F 42.9 °F 29.92 in SSW 3.5 mph 1.7 mph 95 % 0.00 in
07:29 44.4 °F 42.8 °F 29.93 in SSW 3.5 mph 2.2 mph 94 % 0.00 in
07:34 44.6 °F 43.0 °F 29.93 in SSW 2.0 mph 0.5 mph 94 % 0.00 in
07:39 45.0 °F 43.7 °F 29.92 in North 3.5 mph 2.4 mph 95 % 0.00 in
07:44 45.4 °F 43.8 °F 29.93 in SSW 5.0 mph 3.3 mph 94 % 0.00 in
07:49 45.5 °F 43.9 °F 29.92 in SSW 4.6 mph 2.2 mph 94 % 0.00 in
07:54 45.8 °F 44.2 °F 29.93 in SSW 1.2 mph 0.3 mph 94 % 0.00 in
07:59 46.3 °F 44.7 °F 29.93 in SSW 2.3 mph 2.0 mph 94 % 0.00 in
08:04 47.0 °F 45.4 °F 29.93 in SSW 5.0 mph 3.6 mph 94 % 0.00 in
08:09 47.7 °F 46.1 °F 29.93 in WSW 7.0 mph 5.6 mph 94 % 0.00 in
08:14 48.1 °F 46.2 °F 29.93 in North 8.1 mph 7.0 mph 93 % 0.00 in
08:19 48.4 °F 45.9 °F 29.93 in North 9.2 mph 5.0 mph 91 % 0.00 in
08:24 48.6 °F 46.1 °F 29.93 in NNW 8.1 mph 5.0 mph 91 % 0.00 in
08:29 48.9 °F 46.1 °F 29.93 in NNW 9.2 mph 7.0 mph 90 % 0.00 in
08:34 49.3 °F 46.2 °F 29.93 in North 9.2 mph 3.8 mph 89 % 0.00 in
08:39 49.5 °F 46.1 °F 29.94 in North 10.4 mph 7.2 mph 88 % 0.00 in
08:44 49.6 °F 46.2 °F 29.94 in NNW 8.1 mph 8.1 mph 88 % 0.00 in
08:49 50.5 °F 47.1 °F 29.94 in North 8.1 mph 4.7 mph 88 % 0.00 in
08:54 51.0 °F 47.0 °F 29.94 in NNW 8.1 mph 6.0 mph 86 % 0.00 in
08:59 51.6 °F 47.2 °F 29.94 in NNW 12.7 mph 6.2 mph 85 % 0.00 in
09:04 52.2 °F 47.5 °F 29.94 in NNW 6.9 mph 5.9 mph 84 % 0.00 in
09:09 52.6 °F 47.6 °F 29.93 in NNW 6.0 mph 4.4 mph 83 % 0.00 in
09:14 53.0 °F 47.7 °F 29.93 in NNW 9.2 mph 6.6 mph 82 % 0.00 in
09:19 53.1 °F 47.4 °F 29.93 in NNW 11.5 mph 8.9 mph 81 % 0.00 in
09:24 53.6 °F 47.9 °F 29.93 in North 11.5 mph 7.6 mph 81 % 0.00 in
09:29 53.7 °F 47.3 °F 29.93 in NNW 13.8 mph 9.4 mph 79 % 0.00 in
09:34 54.5 °F 48.1 °F 29.93 in North 11.5 mph 6.4 mph 79 % 0.00 in
09:39 55.0 °F 47.9 °F 29.94 in NW 16.0 mph 8.8 mph 77 % 0.00 in
09:44 55.0 °F 47.6 °F 29.93 in NNW 11.5 mph 8.2 mph 76 % 0.00 in
09:49 55.5 °F 47.7 °F 29.94 in NNW 12.7 mph 6.8 mph 75 % 0.00 in
09:54 55.6 °F 48.2 °F 29.94 in North 10.4 mph 5.8 mph 76 % 0.00 in
09:59 55.8 °F 47.6 °F 29.94 in NNW 9.2 mph 6.1 mph 74 % 0.00 in
10:04 55.9 °F 47.4 °F 29.94 in North 11.0 mph 6.4 mph 73 % 0.00 in
10:09 55.8 °F 47.6 °F 29.93 in North 10.4 mph 9.4 mph 74 % 0.00 in
10:14 56.2 °F 47.7 °F 29.92 in North 10.4 mph 7.0 mph 73 % 0.00 in
10:19 56.5 °F 47.6 °F 29.93 in North 15.0 mph 9.0 mph 72 % 0.00 in
10:24 56.8 °F 47.5 °F 29.93 in North 11.5 mph 8.4 mph 71 % 0.00 in
10:29 57.2 °F 47.5 °F 29.92 in NNE 12.7 mph 8.4 mph 70 % 0.00 in
10:34 57.8 °F 48.1 °F 29.92 in NNE 13.0 mph 6.4 mph 70 % 0.00 in
10:39 58.1 °F 47.2 °F 29.92 in North 12.7 mph 7.6 mph 67 % 0.00 in
10:44 57.9 °F 47.0 °F 29.93 in North 10.4 mph 8.2 mph 67 % 0.00 in
10:49 58.1 °F 47.2 °F 29.92 in NNW 11.5 mph 6.2 mph 67 % 0.00 in
10:54 58.3 °F 46.6 °F 29.92 in NNW 12.7 mph 6.5 mph 65 % 0.00 in
10:59 58.4 °F 47.1 °F 29.92 in NNW 11.5 mph 6.5 mph 66 % 0.00 in
11:04 58.6 °F 46.9 °F 29.92 in NW 10.0 mph 6.3 mph 65 % 0.00 in
11:09 58.4 °F 46.7 °F 29.92 in North 16.1 mph 7.4 mph 65 % 0.00 in
11:14 58.4 °F 46.7 °F 29.92 in NNW 12.0 mph 9.3 mph 65 % 0.00 in
11:19 58.8 °F 47.1 °F 29.93 in NW 16.1 mph 9.2 mph 65 % 0.00 in
11:24 59.1 °F 47.3 °F 29.92 in NW 12.7 mph 8.5 mph 65 % 0.00 in
11:29 59.3 °F 47.5 °F 29.92 in NNW 9.2 mph 7.3 mph 65 % 0.00 in
11:34 59.5 °F 47.3 °F 29.92 in North 11.5 mph 4.3 mph 64 % 0.00 in
11:39 60.1 °F 47.0 °F 29.92 in North 11.5 mph 8.1 mph 62 % 0.00 in
11:44 60.6 °F 47.5 °F 29.91 in North 19.6 mph 8.0 mph 62 % 0.00 in
11:49 61.1 °F 47.5 °F 29.91 in NW 11.5 mph 9.2 mph 61 % 0.00 in
11:54 60.7 °F 46.7 °F 29.91 in North 10.4 mph 8.5 mph 60 % 0.00 in
11:59 61.0 °F 47.0 °F 29.91 in North 10.4 mph 7.2 mph 60 % 0.00 in
12:04 61.2 °F 46.8 °F 29.91 in NW 10.0 mph 7.9 mph 59 % 0.00 in
12:09 61.4 °F 46.9 °F 29.91 in NNE 10.4 mph 8.3 mph 59 % 0.00 in
12:14 61.6 °F 46.7 °F 29.91 in North 12.7 mph 6.8 mph 58 % 0.00 in
12:19 61.8 °F 46.9 °F 29.91 in NW 9.2 mph 8.0 mph 58 % 0.00 in
12:24 62.2 °F 47.2 °F 29.91 in North 9.2 mph 7.1 mph 58 % 0.00 in
12:29 62.7 °F 47.2 °F 29.90 in NNW 10.4 mph 6.2 mph 57 % 0.00 in
12:34 63.3 °F 46.9 °F 29.90 in North 11.5 mph 8.4 mph 55 % 0.00 in
12:39 63.5 °F 46.6 °F 29.91 in North 10.4 mph 8.3 mph 54 % 0.00 in
12:44 62.9 °F 46.5 °F 29.91 in NW 12.7 mph 7.6 mph 55 % 0.00 in
12:49 62.8 °F 46.9 °F 29.91 in North 12.0 mph 4.5 mph 56 % 0.00 in
12:54 63.5 °F 47.0 °F 29.91 in North 12.7 mph 7.2 mph 55 % 0.00 in
12:59 64.2 °F 47.7 °F 29.90 in North 9.0 mph 5.0 mph 55 % 0.00 in
13:04 64.9 °F 47.4 °F 29.90 in NW 9.2 mph 5.8 mph 53 % 0.00 in
13:09 65.3 °F 47.2 °F 29.89 in NW 6.9 mph 6.3 mph 52 % 0.00 in
13:14 65.4 °F 47.3 °F 29.89 in NNE 13.8 mph 10.9 mph 52 % 0.00 in
13:19 65.2 °F 47.6 °F 29.89 in North 12.7 mph 9.1 mph 53 % 0.00 in
13:24 65.3 °F 47.7 °F 29.88 in North 9.2 mph 5.5 mph 53 % 0.00 in
13:29 65.5 °F 46.9 °F 29.89 in NW 12.7 mph 10.0 mph 51 % 0.00 in
13:34 64.7 °F 46.1 °F 29.88 in NW 6.9 mph 5.9 mph 51 % 0.00 in
13:39 65.2 °F 46.6 °F 29.88 in North 10.4 mph 8.4 mph 51 % 0.00 in
13:44 65.9 °F 47.3 °F 29.88 in NNW 10.4 mph 6.2 mph 51 % 0.00 in
13:49 66.7 °F 48.0 °F 29.88 in North 8.1 mph 5.4 mph 51 % 0.00 in
13:54 67.2 °F 46.8 °F 29.87 in NW 12.0 mph 7.8 mph 48 % 0.00 in
13:59 67.5 °F 46.6 °F 29.87 in North 11.5 mph 6.9 mph 47 % 0.00 in
14:04 67.8 °F 46.3 °F 29.87 in NNW 11.5 mph 8.7 mph 46 % 0.00 in
14:09 68.2 °F 46.6 °F 29.87 in NNW 15.0 mph 8.5 mph 46 % 0.00 in
14:14 67.2 °F 45.7 °F 29.87 in NNW 11.5 mph 7.9 mph 46 % 0.00 in
14:19 66.9 °F 46.6 °F 29.86 in NW 19.6 mph 8.7 mph 48 % 0.00 in
14:24 66.8 °F 46.5 °F 29.86 in North 11.5 mph 7.7 mph 48 % 0.00 in
14:29 66.8 °F 46.5 °F 29.86 in NNW 9.2 mph 6.7 mph 48 % 0.00 in
14:34 66.6 °F 46.3 °F 29.87 in NW 14.0 mph 10.4 mph 48 % 0.00 in
14:39 66.0 °F 46.3 °F 29.86 in North 13.0 mph 10.8 mph 49 % 0.00 in
14:44 66.3 °F 46.6 °F 29.85 in North 10.4 mph 7.0 mph 49 % 0.00 in
14:49 66.4 °F 46.1 °F 29.85 in North 11.5 mph 4.9 mph 48 % 0.00 in
14:54 66.5 °F 45.6 °F 29.85 in North 11.5 mph 8.7 mph 47 % 0.00 in
14:59 66.4 °F 46.7 °F 29.85 in North 7.0 mph 5.4 mph 49 % 0.00 in
15:04 66.3 °F 46.6 °F 29.84 in NNW 8.0 mph 3.7 mph 49 % 0.00 in
15:09 66.6 °F 46.3 °F 29.83 in NNW 6.9 mph 6.2 mph 48 % 0.00 in
15:14 66.5 °F 46.2 °F 29.84 in North 10.4 mph 7.3 mph 48 % 0.00 in
15:19 66.5 °F 46.7 °F 29.84 in North 9.0 mph 7.0 mph 49 % 0.00 in
15:24 66.5 °F 46.7 °F 29.84 in NNW 7.0 mph 5.3 mph 49 % 0.00 in
15:29 66.7 °F 46.4 °F 29.84 in NNW 6.0 mph 5.9 mph 48 % 0.00 in
15:34 66.7 °F 46.4 °F 29.83 in North 6.9 mph 4.4 mph 48 % 0.00 in
15:39 66.7 °F 45.8 °F 29.83 in NNW 9.2 mph 3.7 mph 47 % 0.00 in
15:44 66.7 °F 46.9 °F 29.83 in NNW 5.0 mph 3.3 mph 49 % 0.00 in
15:49 66.6 °F 46.8 °F 29.82 in NNW 9.2 mph 5.9 mph 49 % 0.00 in
15:54 66.8 °F 47.0 °F 29.83 in NNW 8.1 mph 4.5 mph 49 % 0.00 in
15:59 66.8 °F 47.0 °F 29.82 in NNW 6.9 mph 3.8 mph 49 % 0.00 in
16:04 66.9 °F 46.6 °F 29.82 in North 7.0 mph 4.5 mph 48 % 0.00 in
16:09 67.0 °F 47.2 °F 29.83 in NNW 6.9 mph 3.1 mph 49 % 0.00 in
16:14 67.0 °F 46.7 °F 29.83 in NNW 8.1 mph 5.1 mph 48 % 0.00 in
16:19 67.0 °F 46.7 °F 29.83 in North 6.0 mph 5.2 mph 48 % 0.00 in
16:24 66.8 °F 46.5 °F 29.83 in NNW 4.0 mph 2.2 mph 48 % 0.00 in
16:29 66.7 °F 45.8 °F 29.83 in NNW 5.8 mph 2.7 mph 47 % 0.00 in
16:34 66.7 °F 45.8 °F 29.82 in NNW 6.9 mph 4.2 mph 47 % 0.00 in
16:39 66.8 °F 45.9 °F 29.81 in North 6.0 mph 4.0 mph 47 % 0.00 in
16:44 66.8 °F 46.5 °F 29.79 in North 11.5 mph 6.3 mph 48 % 0.00 in
16:49 66.7 °F 46.4 °F 29.80 in North 8.1 mph 3.9 mph 48 % 0.00 in
16:54 66.7 °F 45.8 °F 29.81 in North 6.0 mph 3.8 mph 47 % 0.00 in
16:59 66.6 °F 45.2 °F 29.81 in NNW 8.1 mph 4.4 mph 46 % 0.00 in
17:04 66.4 °F 46.1 °F 29.81 in NNW 4.0 mph 4.6 mph 48 % 0.00 in
17:09 66.1 °F 45.8 °F 29.81 in NW 10.4 mph 7.6 mph 48 % 0.00 in
17:14 65.7 °F 46.0 °F 29.82 in North 11.5 mph 7.0 mph 49 % 0.00 in
17:19 65.3 °F 46.2 °F 29.82 in NW 9.2 mph 5.3 mph 50 % 0.00 in
17:24 65.1 °F 46.0 °F 29.81 in North 4.6 mph 2.4 mph 50 % 0.00 in
17:29 65.1 °F 46.5 °F 29.81 in NW 4.0 mph 2.6 mph 51 % 0.00 in
17:34 65.0 °F 46.9 °F 29.81 in NW 5.0 mph 3.2 mph 52 % 0.00 in
17:39 65.0 °F 47.4 °F 29.82 in NW 4.6 mph 3.0 mph 53 % 0.00 in
17:44 64.9 °F 47.4 °F 29.82 in NW 3.5 mph 2.6 mph 53 % 0.00 in
17:49 64.8 °F 48.2 °F 29.82 in NW 3.5 mph 1.3 mph 55 % 0.00 in
17:54 64.8 °F 48.7 °F 29.82 in North 3.5 mph 0.2 mph 56 % 0.00 in
17:59 64.8 °F 48.2 °F 29.81 in NW 2.3 mph 0.6 mph 55 % 0.00 in
18:04 64.9 °F 48.3 °F 29.80 in NW 4.0 mph 3.0 mph 55 % 0.00 in
18:09 65.1 °F 48.0 °F 29.80 in NW 4.6 mph 2.5 mph 54 % 0.00 in
18:14 65.3 °F 47.7 °F 29.80 in North 3.5 mph 2.8 mph 53 % 0.00 in
18:19 65.5 °F 47.9 °F 29.80 in NW 6.9 mph 4.9 mph 53 % 0.00 in
18:24 65.6 °F 48.0 °F 29.79 in NW 5.0 mph 3.7 mph 53 % 0.00 in
18:29 65.7 °F 47.6 °F 29.79 in NW 9.2 mph 5.0 mph 52 % 0.00 in
18:34 65.8 °F 46.6 °F 29.79 in NW 6.9 mph 4.5 mph 50 % 0.00 in
18:39 65.9 °F 46.7 °F 29.78 in NW 6.9 mph 4.2 mph 50 % 0.00 in
18:44 65.8 °F 46.1 °F 29.78 in NNW 5.8 mph 3.7 mph 49 % 0.00 in
18:49 65.8 °F 46.1 °F 29.78 in North 10.4 mph 4.3 mph 49 % 0.00 in
18:54 65.8 °F 46.6 °F 29.78 in North 4.6 mph 2.7 mph 50 % 0.00 in
18:59 65.8 °F 46.6 °F 29.79 in NNW 4.6 mph 3.3 mph 50 % 0.00 in
19:04 65.8 °F 46.1 °F 29.79 in North 8.1 mph 4.3 mph 49 % 0.00 in
19:09 65.7 °F 46.0 °F 29.79 in NNW 4.6 mph 4.0 mph 49 % 0.00 in
19:14 65.5 °F 46.4 °F 29.79 in NNW 6.0 mph 2.6 mph 50 % 0.00 in
19:19 65.3 °F 46.2 °F 29.79 in North 4.6 mph 4.4 mph 50 % 0.00 in
19:24 65.1 °F 46.5 °F 29.80 in North 6.9 mph 2.9 mph 51 % 0.00 in
19:29 64.9 °F 46.3 °F 29.80 in North 5.8 mph 3.7 mph 51 % 0.00 in
19:34 64.8 °F 46.2 °F 29.80 in North 8.0 mph 4.5 mph 51 % 0.00 in
19:39 64.7 °F 46.1 °F 29.80 in North 4.6 mph 2.5 mph 51 % 0.00 in
19:44 64.6 °F 46.1 °F 29.80 in North 6.9 mph 2.9 mph 51 % 0.00 in
19:49 64.5 °F 46.5 °F 29.80 in North 3.5 mph 2.7 mph 52 % 0.00 in
19:54 64.4 °F 46.4 °F 29.80 in North 3.5 mph 1.9 mph 52 % 0.00 in
19:59 64.3 °F 45.8 °F 29.80 in North 4.6 mph 2.4 mph 51 % 0.00 in
20:04 64.2 °F 46.2 °F 29.80 in North 3.5 mph 2.4 mph 52 % 0.00 in
20:09 64.1 °F 46.1 °F 29.80 in North 2.3 mph 1.3 mph 52 % 0.00 in
20:14 64.0 °F 46.0 °F 29.79 in North 1.2 mph   52 % 0.00 in
20:19 63.9 °F 46.4 °F 29.79 in Calm     53 % 0.00 in
20:24 63.6 °F 46.6 °F 29.79 in North 3.5 mph 2.5 mph 54 % 0.00 in
20:29 63.3 °F 46.4 °F 29.79 in North 2.3 mph 1.5 mph 54 % 0.00 in
20:34 63.1 °F 46.7 °F 29.79 in Calm     55 % 0.00 in
20:39 62.9 °F 47.0 °F 29.79 in Calm     56 % 0.00 in
20:44 62.6 °F 46.7 °F 29.78 in North 3.5 mph 1.9 mph 56 % 0.00 in
20:49 62.4 °F 46.5 °F 29.78 in North 4.0 mph 2.1 mph 56 % 0.00 in
20:54 62.2 °F 46.3 °F 29.78 in North 2.3 mph 0.7 mph 56 % 0.00 in
20:59 62.1 °F 46.2 °F 29.78 in North 2.3 mph 1.5 mph 56 % 0.00 in
21:04 62.0 °F 46.1 °F 29.78 in North 3.5 mph 1.1 mph 56 % 0.00 in
21:09 62.0 °F 46.6 °F 29.78 in North 3.5 mph 1.4 mph 57 % 0.00 in
21:14 61.9 °F 46.5 °F 29.77 in Calm     57 % 0.00 in
21:19 61.7 °F 46.8 °F 29.78 in North 2.3 mph 0.1 mph 58 % 0.00 in
21:24 61.6 °F 46.7 °F 29.78 in North 2.3 mph 1.0 mph 58 % 0.00 in
21:29 61.5 °F 46.6 °F 29.78 in North 2.3 mph 1.3 mph 58 % 0.00 in
21:34 61.5 °F 46.1 °F 29.78 in North 2.3 mph 1.3 mph 57 % 0.00 in
21:39 61.4 °F 46.0 °F 29.78 in North 3.5 mph 1.2 mph 57 % 0.00 in
21:44 61.4 °F 46.0 °F 29.78 in North 2.3 mph 0.3 mph 57 % 0.00 in
21:49 61.3 °F 45.9 °F 29.78 in North 2.3 mph   57 % 0.00 in
21:54 61.3 °F 45.9 °F 29.78 in Calm     57 % 0.00 in
21:59 61.2 °F 45.8 °F 29.78 in North 2.3 mph 0.6 mph 57 % 0.00 in
22:04 61.1 °F 46.2 °F 29.78 in Calm     58 % 0.00 in
22:09 61.0 °F 46.1 °F 29.78 in Calm   0.4 mph 58 % 0.00 in
22:14 61.0 °F 45.7 °F 29.78 in North 1.2 mph 0.2 mph 57 % 0.00 in
22:19 61.1 °F 45.7 °F 29.78 in North 1.2 mph   57 % 0.00 in
22:24 61.1 °F 46.2 °F 29.77 in Calm     58 % 0.00 in
22:29 61.1 °F 47.5 °F 29.77 in Calm     61 % 0.00 in
22:34 61.0 °F 47.4 °F 29.78 in Calm     61 % 0.00 in
22:39 61.0 °F 46.1 °F 29.79 in North 3.5 mph 3.6 mph 58 % 0.00 in
22:44 61.2 °F 46.3 °F 29.80 in North 5.0 mph 3.9 mph 58 % 0.00 in
22:49 61.3 °F 46.4 °F 29.80 in North 3.5 mph 4.0 mph 58 % 0.00 in
22:54 61.5 °F 46.6 °F 29.80 in North 3.5 mph 2.6 mph 58 % 0.00 in
22:59 61.6 °F 46.7 °F 29.80 in North 3.5 mph 3.0 mph 58 % 0.00 in
23:04 61.7 °F 46.8 °F 29.80 in Calm   0.3 mph 58 % 0.00 in
23:09 61.7 °F 47.7 °F 29.79 in North 3.5 mph 2.3 mph 60 % 0.00 in
23:14 61.4 °F 48.7 °F 29.79 in North 1.2 mph   63 % 0.00 in
23:19 60.9 °F 48.6 °F 29.79 in Calm     64 % 0.00 in
23:24 60.4 °F 49.0 °F 29.80 in North 3.5 mph 3.0 mph 66 % 0.00 in
23:29 60.3 °F 48.9 °F 29.79 in North 3.5 mph 2.1 mph 66 % 0.00 in
23:34 60.3 °F 48.5 °F 29.79 in North 2.3 mph 0.2 mph 65 % 0.00 in
23:39 60.2 °F 48.4 °F 29.79 in North 3.5 mph 2.0 mph 65 % 0.00 in
23:44 60.2 °F 48.4 °F 29.78 in Calm     65 % 0.00 in
23:48 60.2 °F 48.8 °F 29.79 in North 1.2 mph 0.7 mph 66 % 0.00 in
23:59 59.8 °F 49.2 °F 29.79 in North 1.2 mph 1.2 mph 68 % 0.00 in
Ararat Weather
Compliments of Weather Underground - 2.25 mb
Click here to send mail.


ABOUT

Live weather data from Ararat, Victoria, Australia, 3377
Data uploaded from Cumulus every 5 minutes to Weather Underground.
This site then downloads the raw data for formatting and display.
Metric and imperial data can be displayed. Graphs and historical data available.
Includes Sun and Moon times and rain image live from BOM.

Check out Ararat Weather on Facebook, Twitter and Google +

Help support ongoing costs by checking out the ads





Follow @AraratWeather